Time;durP1;ratioP1;P1;durP2;ratioP2;P2;SDS_P1;SDS_P2;PMS_P1;PMS_P2;Temp;Humidity;BMP_temperature;BMP_pressure;BME280_temperature;BME280_humidity;BME280_pressure;Samples;Min_cycle;Max_cycle;Signal;HPM_P1;HPM_P2
2024/01/01 00:00:11;;;;;;;24.77;15.32;;;9.80;84.20;;;;;;5002068;28;20025;-79
2024/01/01 00:02:36;;;;;;;36.83;19.20;;;9.80;84.20;;;;;;5005930;28;20044;-77
2024/01/01 00:05:02;;;;;;;23.17;13.75;;;9.80;83.90;;;;;;5005620;28;20282;-79
2024/01/01 00:07:28;;;;;;;24.80;12.00;;;9.70;83.70;;;;;;5004546;28;20046;-77
2024/01/01 00:09:53;;;;;;;20.30;9.88;;;9.80;83.80;;;;;;5006383;28;20029;-76
2024/01/01 00:12:19;;;;;;;13.25;7.43;;;9.80;83.60;;;;;;5005149;28;20030;-78
2024/01/01 00:14:44;;;;;;;13.90;8.23;;;9.80;83.60;;;;;;5005335;28;20073;-77
2024/01/01 00:17:10;;;;;;;14.73;7.13;;;9.80;83.50;;;;;;5007301;28;20038;-78
2024/01/01 00:19:36;;;;;;;11.98;6.25;;;9.80;83.40;;;;;;5000706;28;20113;-76
2024/01/01 00:22:02;;;;;;;10.82;5.20;;;9.80;83.30;;;;;;5002459;28;20414;-77
2024/01/01 00:24:29;;;;;;;10.85;4.88;;;9.80;83.30;;;;;;5002213;28;20217;-77
2024/01/01 00:26:54;;;;;;;12.35;5.97;;;9.80;83.30;;;;;;5002535;28;20105;-78
2024/01/01 00:29:20;;;;;;;12.60;5.57;;;9.80;83.30;;;;;;5001500;28;20100;-78
2024/01/01 00:31:45;;;;;;;10.77;4.55;;;9.70;83.40;;;;;;5002457;28;20048;-77
2024/01/01 00:34:11;;;;;;;8.57;4.50;;;9.70;83.60;;;;;;5003175;28;20030;-76
2024/01/01 00:36:37;;;;;;;11.18;5.93;;;9.70;83.80;;;;;;5004877;28;20021;-79
2024/01/01 00:39:02;;;;;;;13.93;5.88;;;9.60;83.80;;;;;;5005752;28;20497;-80
2024/01/01 00:41:28;;;;;;;10.23;4.55;;;9.60;83.90;;;;;;5005572;28;20815;-80
2024/01/01 00:43:54;;;;;;;8.57;4.13;;;9.60;84.00;;;;;;4999020;28;20025;-79
2024/01/01 00:46:19;;;;;;;9.55;3.63;;;9.60;83.80;;;;;;5006321;28;20088;-77
2024/01/01 00:48:45;;;;;;;5.57;3.20;;;9.50;83.80;;;;;;5003352;28;20121;-81
2024/01/01 00:51:10;;;;;;;4.88;2.90;;;9.50;83.80;;;;;;5004445;28;20038;-79
2024/01/01 00:53:36;;;;;;;6.70;3.05;;;9.50;83.70;;;;;;5006120;28;20485;-78
2024/01/01 00:56:02;;;;;;;4.47;2.78;;;9.50;83.70;;;;;;5004756;28;20030;-78
2024/01/01 00:58:27;;;;;;;8.25;3.13;;;9.50;83.80;;;;;;5004784;28;20452;-81
2024/01/01 01:00:54;;;;;;;6.50;2.60;;;9.40;83.60;;;;;;5005526;28;20032;-81
2024/01/01 01:03:19;;;;;;;4.07;2.20;;;9.40;83.70;;;;;;5006507;28;20116;-79
2024/01/01 01:05:45;;;;;;;5.20;2.20;;;9.40;83.60;;;;;;5002995;28;20597;-80
2024/01/01 01:08:10;;;;;;;3.05;1.65;;;9.40;83.70;;;;;;5004508;28;20560;-79
2024/01/01 01:10:36;;;;;;;3.40;1.67;;;9.40;83.80;;;;;;5005737;28;20026;-81
2024/01/01 01:13:01;;;;;;;3.47;1.77;;;9.40;83.80;;;;;;5002886;28;20030;-78
2024/01/01 01:15:27;;;;;;;4.35;1.70;;;9.40;83.70;;;;;;5004844;28;20037;-80
2024/01/01 01:17:53;;;;;;;6.22;1.73;;;9.30;83.50;;;;;;5003652;28;20033;-80
2024/01/01 01:20:19;;;;;;;2.70;1.40;;;9.30;83.60;;;;;;5003676;28;20029;-79
2024/01/01 01:22:44;;;;;;;2.75;1.40;;;9.30;84.10;;;;;;5003259;28;20037;-81
2024/01/01 01:25:12;;;;;;;2.88;1.30;;;9.30;83.50;;;;;;5007507;28;20391;-78
2024/01/01 01:27:40;;;;;;;7.03;1.70;;;9.30;83.60;;;;;;5005954;28;20049;-80
2024/01/01 01:30:06;;;;;;;5.32;1.67;;;9.30;83.40;;;;;;5004940;28;20018;-81
2024/01/01 01:32:31;;;;;;;3.55;1.50;;;9.20;83.30;;;;;;5003130;28;20548;-78
2024/01/01 01:34:57;;;;;;;2.85;1.60;;;9.10;83.30;;;;;;5002990;28;20129;-81
2024/01/01 01:37:22;;;;;;;2.75;1.40;;;9.10;83.40;;;;;;5004297;28;20394;-80
2024/01/01 01:39:48;;;;;;;5.93;1.60;;;9.00;83.40;;;;;;5003795;28;20034;-79
2024/01/01 01:42:14;;;;;;;2.72;1.23;;;9.00;83.70;;;;;;5004690;28;20030;-80
2024/01/01 01:44:39;;;;;;;4.80;1.90;;;9.00;83.80;;;;;;5003025;28;20034;-79
2024/01/01 01:47:06;;;;;;;2.97;1.42;;;8.90;83.70;;;;;;5006305;28;20500;-79
2024/01/01 01:49:32;;;;;;;3.08;1.40;;;8.90;83.70;;;;;;5010533;28;20022;-79
2024/01/01 01:51:58;;;;;;;1.85;1.10;;;8.90;83.90;;;;;;5009140;28;20044;-80
2024/01/01 01:54:24;;;;;;;3.17;1.25;;;8.90;84.00;;;;;;5007945;28;20109;-80
2024/01/01 01:56:53;;;;;;;3.05;1.30;;;8.80;84.00;;;;;;5005688;28;20056;-81
2024/01/01 01:59:19;;;;;;;1.98;1.30;;;8.80;84.10;;;;;;5007551;28;20037;-80
2024/01/01 02:01:45;;;;;;;2.22;1.00;;;8.80;84.20;;;;;;5012335;28;20058;-79
2024/01/01 02:04:10;;;;;;;2.35;1.20;;;8.70;84.30;;;;;;5013116;28;20054;-80
2024/01/01 02:06:36;;;;;;;3.45;1.27;;;8.70;84.40;;;;;;5008552;28;20088;-83
2024/01/01 02:09:02;;;;;;;3.97;1.42;;;8.70;84.50;;;;;;5010247;28;20022;-79
2024/01/01 02:11:27;;;;;;;3.92;1.58;;;8.70;84.60;;;;;;5007710;28;20374;-79
2024/01/01 02:14:05;;;;;;;4.05;1.40;;;8.70;84.70;;;;;;5008778;28;20049;-79
2024/01/01 02:16:31;;;;;;;2.40;1.30;;;8.60;84.70;;;;;;5012594;28;20057;-80
2024/01/01 02:18:56;;;;;;;3.60;1.50;;;8.60;84.70;;;;;;5012004;28;20026;-81
2024/01/01 02:21:24;;;;;;;2.78;1.30;;;8.60;84.80;;;;;;5012880;28;20436;-78
2024/01/01 02:23:49;;;;;;;3.05;1.35;;;8.60;84.90;;;;;;5012083;28;20084;-80
2024/01/01 02:26:15;;;;;;;5.70;1.50;;;8.60;85.00;;;;;;5011742;28;20037;-78
2024/01/01 02:28:41;;;;;;;3.47;1.50;;;8.60;85.10;;;;;;5012675;28;20053;-78
2024/01/01 02:31:07;;;;;;;4.90;1.67;;;8.60;85.20;;;;;;5011082;28;20478;-79
2024/01/01 02:33:32;;;;;;;3.45;1.60;;;8.60;85.30;;;;;;5012059;28;20473;-81
2024/01/01 02:35:58;;;;;;;4.78;1.70;;;8.60;85.50;;;;;;5012890;28;20104;-77
2024/01/01 02:38:23;;;;;;;2.50;1.42;;;8.60;85.60;;;;;;5013514;28;20343;-78
2024/01/01 02:40:49;;;;;;;1.92;1.20;;;8.60;85.60;;;;;;5011448;28;20033;-81
2024/01/01 02:43:14;;;;;;;6.07;2.72;;;8.60;85.70;;;;;;5011978;28;20494;-81
2024/01/01 02:45:40;;;;;;;4.07;1.58;;;8.70;85.70;;;;;;5011854;28;20486;-81
2024/01/01 02:48:06;;;;;;;4.72;1.70;;;8.70;85.80;;;;;;5011816;28;20029;-78
2024/01/01 02:50:33;;;;;;;4.63;1.80;;;8.70;85.90;;;;;;5012282;28;20485;-81
2024/01/01 02:52:58;;;;;;;4.60;2.35;;;8.70;86.00;;;;;;5011268;28;20017;-77
2024/01/01 02:55:24;;;;;;;3.72;1.98;;;8.70;86.50;;;;;;5010945;28;20025;-80
2024/01/01 02:57:49;;;;;;;5.00;1.55;;;8.60;86.70;;;;;;5012985;28;20044;-78
2024/01/01 03:00:16;;;;;;;4.18;1.50;;;8.50;87.00;;;;;;5010580;28;20033;-80
2024/01/01 03:02:42;;;;;;;3.97;1.25;;;8.50;87.40;;;;;;5008715;28;20079;-79
2024/01/01 03:05:08;;;;;;;3.17;1.50;;;8.50;87.70;;;;;;5011494;28;20123;-79
2024/01/01 03:07:34;;;;;;;4.90;2.00;;;8.50;88.00;;;;;;5012077;28;20025;-79
2024/01/01 03:09:59;;;;;;;4.93;1.60;;;8.50;88.50;;;;;;5010968;28;20022;-79
2024/01/01 03:12:26;;;;;;;4.72;2.15;;;8.40;88.60;;;;;;5011158;28;20380;-78
2024/01/01 03:14:51;;;;;;;4.82;1.45;;;8.50;89.00;;;;;;5010157;28;20022;-78
2024/01/01 03:17:17;;;;;;;4.68;1.50;;;8.50;89.40;;;;;;5010114;28;20675;-80
2024/01/01 03:19:42;;;;;;;4.53;1.08;;;8.50;89.40;;;;;;5008409;28;20481;-79
2024/01/01 03:22:08;;;;;;;5.60;1.50;;;8.50;89.30;;;;;;5010246;28;20026;-80
2024/01/01 03:24:34;;;;;;;5.20;1.85;;;8.50;89.80;;;;;;5010154;28;20025;-80
2024/01/01 03:26:59;;;;;;;4.60;1.30;;;8.40;89.90;;;;;;5011680;28;20022;-80
2024/01/01 03:29:25;;;;;;;5.32;1.45;;;8.40;90.00;;;;;;5010680;28;20021;-80
2024/01/01 03:31:50;;;;;;;5.22;1.73;;;8.40;90.10;;;;;;5012746;28;20080;-82
2024/01/01 03:34:16;;;;;;;4.32;1.27;;;8.40;90.10;;;;;;5010379;28;20029;-81
2024/01/01 03:36:42;;;;;;;5.55;1.35;;;8.50;90.20;;;;;;5013222;28;20090;-79
2024/01/01 03:39:08;;;;;;;3.42;1.40;;;8.50;90.20;;;;;;5009391;28;20398;-79
2024/01/01 03:41:33;;;;;;;6.05;1.58;;;8.40;90.20;;;;;;5008223;28;20022;-78
2024/01/01 03:43:59;;;;;;;3.15;1.20;;;8.50;90.30;;;;;;5009749;28;20021;-78
2024/01/01 03:46:24;;;;;;;6.65;1.85;;;8.50;90.30;;;;;;5013090;28;20030;-80
2024/01/01 03:48:50;;;;;;;4.72;1.40;;;8.50;90.30;;;;;;5011948;28;20034;-81
2024/01/01 03:51:16;;;;;;;2.85;1.10;;;8.50;90.30;;;;;;5010798;28;20455;-80
2024/01/01 03:53:41;;;;;;;4.78;1.98;;;8.50;90.30;;;;;;5010474;28;20036;-79
2024/01/01 03:56:07;;;;;;;6.65;1.58;;;8.50;90.30;;;;;;5010236;28;20403;-79
2024/01/01 03:58:33;;;;;;;4.18;1.15;;;8.60;90.30;;;;;;5010206;28;20021;-80
2024/01/01 04:00:58;;;;;;;5.55;1.55;;;8.50;90.30;;;;;;5009741;28;20029;-79
2024/01/01 04:03:24;;;;;;;4.55;1.40;;;8.50;90.40;;;;;;5011566;28;21038;-82
2024/01/01 04:05:49;;;;;;;5.35;1.40;;;8.50;90.40;;;;;;5009712;28;20026;-79
2024/01/01 04:08:15;;;;;;;6.03;1.30;;;8.50;90.40;;;;;;5009006;28;20049;-80
2024/01/01 04:10:41;;;;;;;4.00;1.30;;;8.60;90.40;;;;;;5009645;28;20022;-81
2024/01/01 04:13:06;;;;;;;1.63;1.08;;;8.50;90.40;;;;;;5007872;28;20029;-78
2024/01/01 04:15:32;;;;;;;3.63;1.05;;;8.60;90.40;;;;;;5008968;28;20026;-78
2024/01/01 04:17:57;;;;;;;5.15;1.30;;;8.60;90.40;;;;;;5008901;28;20022;-78
2024/01/01 04:20:23;;;;;;;4.28;1.30;;;8.60;90.40;;;;;;5008842;28;20033;-78
2024/01/01 04:22:51;;;;;;;4.90;1.30;;;8.60;90.40;;;;;;5006935;28;20067;-77
2024/01/01 04:25:20;;;;;;;8.93;1.58;;;8.60;90.40;;;;;;5007607;28;20075;-77
2024/01/01 04:27:46;;;;;;;3.90;1.30;;;8.60;90.40;;;;;;5009492;28;20026;-80
2024/01/01 04:30:11;;;;;;;3.60;1.67;;;8.60;90.40;;;;;;5007154;28;20789;-77
2024/01/01 04:32:37;;;;;;;6.18;1.42;;;8.60;90.40;;;;;;5007750;28;20413;-79
2024/01/01 04:35:03;;;;;;;5.10;1.15;;;8.70;90.50;;;;;;5009971;28;20041;-78
2024/01/01 04:37:29;;;;;;;5.82;1.30;;;8.60;90.40;;;;;;5007144;28;20026;-79
2024/01/01 04:39:55;;;;;;;1.90;0.93;;;8.60;90.40;;;;;;5008267;28;20026;-77
2024/01/01 04:42:20;;;;;;;2.83;1.00;;;8.70;90.40;;;;;;5009723;28;20034;-79
2024/01/01 04:44:46;;;;;;;3.17;1.25;;;8.70;90.30;;;;;;5009754;28;20033;-81
2024/01/01 04:47:11;;;;;;;5.57;1.15;;;8.80;90.30;;;;;;5007608;28;20030;-80
2024/01/01 04:49:37;;;;;;;6.40;1.10;;;8.80;90.30;;;;;;5009108;28;20025;-81
2024/01/01 04:52:03;;;;;;;6.45;1.77;;;8.80;90.30;;;;;;5007957;28;20029;-80
2024/01/01 04:54:29;;;;;;;2.70;1.05;;;8.70;90.20;;;;;;5009072;28;20018;-80
2024/01/01 04:56:54;;;;;;;3.67;1.20;;;8.70;90.30;;;;;;5009457;28;20478;-80
2024/01/01 04:59:20;;;;;;;5.55;1.58;;;8.70;90.30;;;;;;5008332;28;20045;-79
2024/01/01 05:01:45;;;;;;;5.85;1.60;;;8.70;90.30;;;;;;5007356;28;20052;-81
2024/01/01 05:04:11;;;;;;;5.63;2.00;;;8.70;90.30;;;;;;5010590;28;20029;-79
2024/01/01 05:06:37;;;;;;;4.10;1.10;;;8.70;90.20;;;;;;5009347;28;20025;-80
2024/01/01 05:09:02;;;;;;;4.28;1.20;;;8.70;90.20;;;;;;5009269;28;20092;-80
2024/01/01 05:11:29;;;;;;;2.75;1.10;;;8.70;90.20;;;;;;5004712;28;20028;-82
2024/01/01 05:13:54;;;;;;;5.22;1.10;;;8.70;90.20;;;;;;5007352;28;20076;-76
2024/01/01 05:16:20;;;;;;;5.88;1.10;;;8.70;90.20;;;;;;5010832;28;20030;-80
2024/01/01 05:18:46;;;;;;;5.00;1.25;;;8.70;90.20;;;;;;5009324;28;20036;-79
2024/01/01 05:21:11;;;;;;;5.20;1.40;;;8.70;90.30;;;;;;5009574;28;20229;-79
2024/01/01 05:23:37;;;;;;;3.35;1.40;;;8.60;90.30;;;;;;5008978;28;20029;-82
2024/01/01 05:26:03;;;;;;;5.28;1.30;;;8.60;90.40;;;;;;5010334;28;20437;-82
2024/01/01 05:28:29;;;;;;;5.05;1.10;;;8.60;90.40;;;;;;5008405;28;20030;-79
2024/01/01 05:30:55;;;;;;;2.88;0.90;;;8.60;90.50;;;;;;5009015;28;20025;-78
2024/01/01 05:33:21;;;;;;;2.42;1.10;;;8.60;90.50;;;;;;5008523;28;20019;-81
2024/01/01 05:35:47;;;;;;;3.70;1.08;;;8.50;90.50;;;;;;5011848;28;20443;-80
2024/01/01 05:38:13;;;;;;;4.18;1.20;;;8.60;90.50;;;;;;5013208;28;20101;-82
2024/01/01 05:40:38;;;;;;;7.00;1.40;;;8.50;90.60;;;;;;5012692;28;20484;-78
2024/01/01 05:43:04;;;;;;;9.20;1.38;;;8.50;90.60;;;;;;5011815;28;20022;-80
2024/01/01 05:45:30;;;;;;;2.17;1.00;;;8.50;90.60;;;;;;5013674;28;20156;-79
2024/01/01 05:47:55;;;;;;;6.85;1.88;;;8.50;90.60;;;;;;5011329;28;20587;-80
2024/01/01 05:50:21;;;;;;;3.58;1.42;;;8.50;90.60;;;;;;5012644;28;20038;-80
2024/01/01 05:52:47;;;;;;;2.83;1.00;;;8.50;90.60;;;;;;5008580;28;20296;-81
2024/01/01 05:55:13;;;;;;;3.67;1.48;;;8.50;90.60;;;;;;5012605;28;20069;-81
2024/01/01 05:57:38;;;;;;;5.28;1.27;;;8.50;90.60;;;;;;5009571;28;20026;-78
2024/01/01 06:00:05;;;;;;;6.25;1.80;;;8.40;90.60;;;;;;5011746;28;20188;-79
2024/01/01 06:02:30;;;;;;;3.30;1.10;;;8.50;90.60;;;;;;5019660;28;20029;-78
2024/01/01 06:04:56;;;;;;;5.20;0.95;;;8.50;90.60;;;;;;5009739;28;20022;-81
2024/01/01 06:07:21;;;;;;;3.20;1.08;;;8.50;90.70;;;;;;5007999;28;20038;-77
2024/01/01 06:09:47;;;;;;;6.13;1.65;;;8.40;90.70;;;;;;5011177;28;20022;-80
2024/01/01 06:12:13;;;;;;;6.13;1.30;;;8.50;90.80;;;;;;5011013;28;20061;-80
2024/01/01 06:14:38;;;;;;;4.00;1.33;;;8.40;90.80;;;;;;5012600;28;20056;-79
2024/01/01 06:17:04;;;;;;;5.03;1.20;;;8.40;90.80;;;;;;5014753;28;20029;-82
2024/01/01 06:19:30;;;;;;;4.85;1.10;;;8.40;90.90;;;;;;5011056;28;20030;-77
2024/01/01 06:21:56;;;;;;;8.18;1.45;;;8.40;91.10;;;;;;5011795;28;20105;-82
2024/01/01 06:24:22;;;;;;;4.70;1.20;;;8.40;91.00;;;;;;5010587;28;20030;-79
2024/01/01 06:26:48;;;;;;;3.25;1.00;;;8.40;91.00;;;;;;5010427;28;20081;-80
2024/01/01 06:29:14;;;;;;;2.65;1.02;;;8.40;90.90;;;;;;5010740;28;20105;-78
2024/01/01 06:31:39;;;;;;;2.50;1.20;;;8.40;90.90;;;;;;5009597;28;20068;-80
2024/01/01 06:34:05;;;;;;;2.65;1.25;;;8.40;90.90;;;;;;5009267;28;20018;-79
2024/01/01 06:36:30;;;;;;;2.95;1.15;;;8.50;90.90;;;;;;5010903;28;20029;-79
2024/01/01 06:38:56;;;;;;;4.65;1.30;;;8.50;90.90;;;;;;5010979;28;20026;-80
2024/01/01 06:41:21;;;;;;;5.88;1.00;;;8.40;90.90;;;;;;5010496;28;20113;-78
2024/01/01 06:43:47;;;;;;;2.72;1.20;;;8.40;90.90;;;;;;5011730;28;20290;-81
2024/01/01 06:46:12;;;;;;;3.58;1.08;;;8.40;90.90;;;;;;5009035;28;20029;-79
2024/01/01 06:48:38;;;;;;;3.42;1.02;;;8.40;91.00;;;;;;5010419;28;20512;-77
2024/01/01 06:51:10;;;;;;;2.58;1.13;;;8.40;91.00;;;;;;5011124;28;20030;-78
2024/01/01 06:53:35;;;;;;;2.05;0.90;;;8.40;91.00;;;;;;5009735;28;20052;-78
2024/01/01 06:56:01;;;;;;;5.75;1.20;;;8.40;91.00;;;;;;5010579;28;20112;-80
2024/01/01 06:58:26;;;;;;;4.18;1.42;;;8.40;91.00;;;;;;5009644;28;20101;-81
2024/01/01 07:00:52;;;;;;;3.63;1.10;;;8.40;91.00;;;;;;5011017;28;20057;-79
2024/01/01 07:03:17;;;;;;;3.40;1.27;;;8.40;91.00;;;;;;5009783;28;20528;-79
2024/01/01 07:05:43;;;;;;;4.93;1.20;;;8.40;91.00;;;;;;5010277;28;20405;-78
2024/01/01 07:08:08;;;;;;;2.60;1.10;;;8.40;91.00;;;;;;5008871;28;20029;-79
2024/01/01 07:10:34;;;;;;;4.05;1.23;;;8.40;91.00;;;;;;5010768;28;20084;-78
2024/01/01 07:13:00;;;;;;;3.83;1.33;;;8.40;91.00;;;;;;5011315;28;20018;-80
2024/01/01 07:15:25;;;;;;;4.88;1.30;;;8.40;91.00;;;;;;5011228;28;20026;-82
2024/01/01 07:17:51;;;;;;;2.75;1.10;;;8.40;91.00;;;;;;5010909;28;20116;-78
2024/01/01 07:20:16;;;;;;;6.28;1.38;;;8.40;91.00;;;;;;5012434;28;20030;-81
2024/01/01 07:22:42;;;;;;;4.65;1.52;;;8.40;91.00;;;;;;5011939;28;20037;-81
2024/01/01 07:25:09;;;;;;;5.63;1.30;;;8.40;91.00;;;;;;5011151;28;20038;-81
2024/01/01 07:27:35;;;;;;;4.55;1.15;;;8.40;91.10;;;;;;5011499;28;20105;-80
2024/01/01 07:30:03;;;;;;;3.03;1.35;;;8.40;91.10;;;;;;5011478;28;20069;-81
2024/01/01 07:32:30;;;;;;;3.10;1.73;;;8.40;91.10;;;;;;5010603;28;20025;-80
2024/01/01 07:34:56;;;;;;;4.22;1.35;;;8.40;91.10;;;;;;5011815;28;20029;-81
2024/01/01 07:37:21;;;;;;;3.05;1.20;;;8.40;91.20;;;;;;5012052;28;20026;-78
2024/01/01 07:39:47;;;;;;;1.90;1.10;;;8.40;91.20;;;;;;5010590;28;20017;-81
2024/01/01 07:42:12;;;;;;;3.88;1.58;;;8.40;91.10;;;;;;5009921;28;20081;-80
2024/01/01 07:44:40;;;;;;;5.05;1.40;;;8.40;91.10;;;;;;5009591;28;20140;-81
2024/01/01 07:47:06;;;;;;;5.32;1.55;;;8.40;91.40;;;;;;5010242;28;20045;-77
2024/01/01 07:49:31;;;;;;;3.03;1.15;;;8.40;91.20;;;;;;5010830;28;20057;-81
2024/01/01 07:51:57;;;;;;;6.25;1.60;;;8.40;91.20;;;;;;5007570;28;20076;-79
2024/01/01 07:54:22;;;;;;;6.50;1.50;;;8.40;91.20;;;;;;5006091;28;20432;-80
2024/01/01 07:56:49;;;;;;;5.70;1.60;;;8.40;91.30;;;;;;5005682;28;20025;-76
2024/01/01 07:59:14;;;;;;;4.80;1.42;;;8.40;91.40;;;;;;5004774;28;20026;-79
2024/01/01 08:01:40;;;;;;;4.03;1.33;;;8.40;91.50;;;;;;5004878;28;20027;-80
2024/01/01 08:04:07;;;;;;;3.53;1.20;;;8.30;91.50;;;;;;5009663;28;20057;-79
2024/01/01 08:06:33;;;;;;;4.32;1.20;;;8.40;91.50;;;;;;5008454;28;20045;-78
2024/01/01 08:08:59;;;;;;;5.05;1.50;;;8.40;91.60;;;;;;5009632;28;20037;-80
2024/01/01 08:11:24;;;;;;;5.10;1.48;;;8.40;91.60;;;;;;5009737;28;20026;-80
2024/01/01 08:13:50;;;;;;;4.78;1.48;;;8.40;91.60;;;;;;5010124;28;20022;-77
2024/01/01 08:16:19;;;;;;;3.47;1.40;;;8.40;91.50;;;;;;5008252;28;20030;-79
2024/01/01 08:18:48;;;;;;;7.40;1.75;;;8.40;91.50;;;;;;5008932;28;20142;-79
2024/01/01 08:21:13;;;;;;;4.70;1.42;;;8.40;91.60;;;;;;5006527;28;20101;-79
2024/01/01 08:23:39;;;;;;;3.30;1.20;;;8.50;91.60;;;;;;5007989;28;20053;-80
2024/01/01 08:26:05;;;;;;;2.58;1.10;;;8.50;91.50;;;;;;5004902;28;20480;-77
2024/01/01 08:28:32;;;;;;;3.90;1.75;;;8.40;91.60;;;;;;5008064;28;20026;-80
2024/01/01 08:30:58;;;;;;;6.70;1.48;;;8.40;91.60;;;;;;5008869;28;20405;-79
2024/01/01 08:33:24;;;;;;;4.35;1.50;;;8.40;91.60;;;;;;5007960;28;20029;-80
2024/01/01 08:35:53;;;;;;;4.50;1.48;;;8.40;91.70;;;;;;5006844;28;20040;-80
2024/01/01 08:38:19;;;;;;;2.05;1.00;;;8.50;91.60;;;;;;5007081;28;20050;-78
2024/01/01 08:40:44;;;;;;;3.85;1.25;;;8.50;91.60;;;;;;5007620;28;20053;-79
2024/01/01 08:43:10;;;;;;;1.85;1.10;;;8.40;91.90;;;;;;5011163;28;20420;-80
2024/01/01 08:45:35;;;;;;;3.53;1.33;;;8.50;91.70;;;;;;5006112;28;20068;-80
2024/01/01 08:48:01;;;;;;;3.03;1.60;;;8.50;91.80;;;;;;5009391;28;20018;-81
2024/01/01 08:50:27;;;;;;;3.47;1.00;;;8.40;91.80;;;;;;5009662;28;20121;-79
2024/01/01 08:52:52;;;;;;;3.80;1.20;;;8.50;91.80;;;;;;5008003;28;20021;-77
2024/01/01 08:55:18;;;;;;;2.42;1.05;;;8.40;91.80;;;;;;5007700;28;20092;-77
2024/01/01 08:57:43;;;;;;;2.03;0.90;;;8.40;91.90;;;;;;5007481;28;20072;-79
2024/01/01 09:00:09;;;;;;;1.85;0.90;;;8.40;91.90;;;;;;5006429;28;20032;-80
2024/01/01 09:02:35;;;;;;;1.77;1.00;;;8.50;92.00;;;;;;5008743;28;20022;-79
2024/01/01 09:05:00;;;;;;;1.50;1.00;;;8.50;91.90;;;;;;5008558;28;20033;-80
2024/01/01 09:07:26;;;;;;;4.93;1.83;;;8.50;91.90;;;;;;5005526;28;20101;-79
2024/01/01 09:09:51;;;;;;;2.72;1.20;;;8.50;91.90;;;;;;5012040;28;20061;-79
2024/01/01 09:12:17;;;;;;;1.55;0.98;;;8.50;92.00;;;;;;5006780;28;20145;-77
2024/01/01 09:14:43;;;;;;;3.90;1.30;;;8.50;92.00;;;;;;5006620;28;20057;-79
2024/01/01 09:17:08;;;;;;;5.35;1.40;;;8.50;92.00;;;;;;5008808;28;20497;-78
2024/01/01 09:19:36;;;;;;;3.35;1.30;;;8.40;92.00;;;;;;5010083;28;20030;-78
2024/01/01 09:22:02;;;;;;;5.15;1.67;;;8.50;92.10;;;;;;5012628;28;20030;-78
2024/01/01 09:24:27;;;;;;;4.15;1.10;;;8.50;92.10;;;;;;5008251;28;20025;-81
2024/01/01 09:26:53;;;;;;;2.83;1.00;;;8.50;92.10;;;;;;5010791;28;20490;-81
2024/01/01 09:29:18;;;;;;;3.88;1.60;;;8.50;92.20;;;;;;5010335;28;20029;-79
2024/01/01 09:31:44;;;;;;;3.13;1.48;;;8.40;92.20;;;;;;5012555;28;20033;-80
2024/01/01 09:34:10;;;;;;;3.95;1.20;;;8.40;92.30;;;;;;5009953;28;20022;-79
2024/01/01 09:36:36;;;;;;;1.80;1.10;;;8.40;92.30;;;;;;5012593;28;20549;-80
2024/01/01 09:39:01;;;;;;;3.97;1.58;;;8.50;92.30;;;;;;5013545;28;20504;-81
2024/01/01 09:41:27;;;;;;;2.67;1.00;;;8.50;92.60;;;;;;5013190;28;20085;-81
2024/01/01 09:43:53;;;;;;;3.17;1.10;;;8.50;92.40;;;;;;5010703;28;20097;-81
2024/01/01 09:46:20;;;;;;;1.17;0.93;;;8.50;92.40;;;;;;5011303;28;20053;-79
2024/01/01 09:48:46;;;;;;;3.15;1.35;;;8.50;92.40;;;;;;5009907;28;20094;-79
2024/01/01 09:51:12;;;;;;;5.05;1.25;;;8.50;92.40;;;;;;5009435;28;20018;-80
2024/01/01 09:53:37;;;;;;;2.03;1.00;;;8.50;92.40;;;;;;5007821;28;20018;-79
2024/01/01 09:56:03;;;;;;;3.10;1.10;;;8.60;92.40;;;;;;5008433;28;20029;-80
2024/01/01 09:58:39;;;;;;;4.07;1.20;;;8.60;92.40;;;;;;5010179;28;20030;-80
2024/01/01 10:01:21;;;;;;;3.83;1.50;;;8.60;92.30;;;;;;5008828;28;20053;-79
2024/01/01 10:04:06;;;;;;;2.67;1.05;;;8.60;92.40;;;;;;5028317;28;20022;-78
2024/01/01 10:06:34;;;;;;;2.22;1.35;;;8.50;92.50;;;;;;5006961;28;20030;-77
2024/01/01 10:09:12;;;;;;;4.38;1.10;;;8.50;92.50;;;;;;5010612;28;20461;-78
2024/01/01 10:11:41;;;;;;;2.03;0.80;;;8.50;92.50;;;;;;5009629;28;20041;-79
2024/01/01 10:14:09;;;;;;;0.63;0.63;;;8.60;92.50;;;;;;5010406;28;20046;-78
2024/01/01 10:16:38;;;;;;;1.35;0.93;;;8.60;92.50;;;;;;5008155;28;20058;-80
2024/01/01 10:19:04;;;;;;;1.27;0.85;;;8.60;92.50;;;;;;5010268;28;20109;-79
2024/01/01 10:21:35;;;;;;;2.83;1.02;;;8.60;92.50;;;;;;5003785;28;20018;-77
2024/01/01 10:24:26;;;;;;;3.20;1.27;;;8.60;92.50;;;;;;5006182;28;20092;-80
2024/01/01 10:26:52;;;;;;;2.63;1.00;;;8.60;92.50;;;;;;5004936;28;20557;-81
2024/01/01 10:29:19;;;;;;;2.42;1.30;;;8.60;92.50;;;;;;5006759;28;20030;-78
2024/01/01 10:31:46;;;;;;;1.20;0.73;;;8.60;92.50;;;;;;5005120;28;20014;-78
2024/01/01 10:34:12;;;;;;;3.30;0.90;;;8.60;92.50;;;;;;5004208;28;20109;-81
2024/01/01 10:36:41;;;;;;;1.67;0.95;;;8.70;92.50;;;;;;5008260;28;20056;-78
2024/01/01 10:39:09;;;;;;;1.05;0.90;;;8.70;92.50;;;;;;5005409;28;20033;-79
2024/01/01 10:41:37;;;;;;;1.42;0.82;;;8.70;92.50;;;;;;5006734;28;20036;-82
2024/01/01 10:44:03;;;;;;;2.08;0.90;;;8.70;92.50;;;;;;5020910;28;20513;-82
2024/01/01 10:46:34;;;;;;;3.20;1.00;;;8.70;92.50;;;;;;5009128;28;20018;-79
2024/01/01 10:49:02;;;;;;;2.88;1.00;;;8.70;92.50;;;;;;5010218;28;20558;-81
2024/01/01 10:51:41;;;;;;;2.58;1.20;;;8.70;92.60;;;;;;5005659;28;20123;-80
2024/01/01 10:54:19;;;;;;;2.85;1.10;;;8.70;92.70;;;;;;5004321;28;20060;-80
2024/01/01 10:56:48;;;;;;;3.85;1.13;;;8.70;92.70;;;;;;5009025;28;20157;-81
2024/01/01 10:59:22;;;;;;;4.95;1.30;;;8.70;92.70;;;;;;5004533;28;20500;-79
2024/01/01 11:01:50;;;;;;;4.13;1.13;;;8.70;92.80;;;;;;5006312;28;20583;-81
2024/01/01 11:04:19;;;;;;;2.55;1.00;;;8.70;92.80;;;;;;5004801;28;20033;-78
2024/01/01 11:06:45;;;;;;;1.83;1.05;;;8.70;92.80;;;;;;5005321;28;20033;-78
2024/01/01 11:09:20;;;;;;;1.52;0.90;;;8.80;92.80;;;;;;5007025;28;20038;-81
2024/01/01 11:11:50;;;;;;;1.20;0.80;;;8.90;92.70;;;;;;5003728;28;20119;-79
2024/01/01 11:14:26;;;;;;;0.75;0.75;;;9.00;92.60;;;;;;5019205;28;20029;-78
2024/01/01 11:16:57;;;;;;;4.10;1.20;;;9.10;92.50;;;;;;5005763;28;20409;-79
2024/01/01 11:19:43;;;;;;;3.53;1.30;;;9.10;92.50;;;;;;5003821;28;20073;-78
2024/01/01 11:22:20;;;;;;;3.67;1.10;;;9.10;92.60;;;;;;5005149;28;20023;-79
2024/01/01 11:24:50;;;;;;;2.00;1.10;;;9.10;92.60;;;;;;5004930;28;20018;-79
2024/01/01 11:27:27;;;;;;;1.17;0.98;;;9.00;92.50;;;;;;5004228;28;20033;-78
2024/01/01 11:29:52;;;;;;;2.08;0.93;;;9.10;92.60;;;;;;5003815;28;20045;-79
2024/01/01 11:32:19;;;;;;;1.90;1.00;;;9.00;92.60;;;;;;5003538;28;20034;-80
2024/01/01 11:35:11;;;;;;;1.75;0.90;;;9.00;92.70;;;;;;5005749;28;20029;-78
2024/01/01 11:37:38;;;;;;;;;;;8.90;92.80;;;;;;5010600;28;20026;-79
2024/01/01 11:40:05;;;;;;;2.17;0.93;;;8.90;92.80;;;;;;5010771;28;19948;-80
2024/01/01 11:42:31;;;;;;;3.10;1.17;;;8.90;92.90;;;;;;5007805;28;20033;-78
2024/01/01 11:45:06;;;;;;;2.85;0.82;;;8.90;93.00;;;;;;5006078;28;20034;-80
2024/01/01 11:47:32;;;;;;;2.85;1.10;;;8.90;93.00;;;;;;5009954;28;20091;-81
2024/01/01 11:49:57;;;;;;;1.63;0.80;;;9.10;93.00;;;;;;5007563;28;20117;-79
2024/01/01 11:52:23;;;;;;;2.42;0.73;;;9.20;92.90;;;;;;5006990;28;20018;-81
2024/01/01 11:54:48;;;;;;;2.45;1.00;;;9.30;92.80;;;;;;5003848;28;20053;-78
2024/01/01 11:57:14;;;;;;;1.70;0.80;;;9.30;92.70;;;;;;5006208;28;20041;-77
2024/01/01 11:59:40;;;;;;;1.30;0.77;;;9.30;92.70;;;;;;5007074;28;20370;-79
2024/01/01 12:02:06;;;;;;;3.35;1.00;;;9.40;92.60;;;;;;5003434;28;20058;-78
2024/01/01 12:04:32;;;;;;;1.90;1.00;;;9.30;92.60;;;;;;5010451;28;20033;-79
2024/01/01 12:06:57;;;;;;;2.47;0.90;;;9.30;92.60;;;;;;5007595;28;20022;-79
2024/01/01 12:09:23;;;;;;;2.47;1.02;;;9.20;92.90;;;;;;5008390;28;20026;-80
2024/01/01 12:11:49;;;;;;;2.72;1.15;;;9.20;92.70;;;;;;5007280;28;20022;-80
2024/01/01 12:14:22;;;;;;;1.92;0.93;;;9.20;92.70;;;;;;5009361;28;20025;-78
2024/01/01 12:16:48;;;;;;;1.13;0.80;;;9.20;92.70;;;;;;5006403;28;20093;-79
2024/01/01 12:19:14;;;;;;;2.08;0.82;;;9.20;92.80;;;;;;5005872;28;20061;-77
2024/01/01 12:21:40;;;;;;;3.22;1.00;;;9.10;92.70;;;;;;5004510;28;20117;-79
2024/01/01 12:24:16;;;;;;;4.13;1.20;;;9.10;92.70;;;;;;5004963;28;20086;-78
2024/01/01 12:26:44;;;;;;;4.10;1.10;;;9.10;92.80;;;;;;5009722;28;20125;-80
2024/01/01 12:29:18;;;;;;;2.08;1.00;;;9.00;92.80;;;;;;5008970;28;20029;-80
2024/01/01 12:31:46;;;;;;;3.47;0.90;;;9.00;92.90;;;;;;5020246;28;20022;-79
2024/01/01 12:34:14;;;;;;;1.95;0.90;;;9.50;93.40;;;;;;5008796;28;20104;-79
2024/01/01 12:36:44;;;;;;;1.90;0.80;;;10.60;92.60;;;;;;5011031;28;20022;-79
2024/01/01 12:39:10;;;;;;;3.83;1.00;;;10.70;91.80;;;;;;5009984;28;20037;-79
2024/01/01 12:41:37;;;;;;;1.48;0.70;;;10.90;91.60;;;;;;5007485;28;20025;-82
2024/01/01 12:44:02;;;;;;;1.75;0.90;;;10.60;91.50;;;;;;5003755;28;20026;-80
2024/01/01 12:46:28;;;;;;;2.03;1.20;;;10.30;91.80;;;;;;5008360;28;20029;-78
2024/01/01 12:48:54;;;;;;;3.75;0.90;;;10.10;91.90;;;;;;5008740;28;20018;-81
2024/01/01 12:51:24;;;;;;;2.85;1.00;;;10.00;92.10;;;;;;5003548;28;20037;-80